sensor_id;sensor_type;location;lat;lon;timestamp;P1;durP1;ratioP1;P2;durP2;ratioP2
56269;SDS011;42176;43.240;27.880;2023-07-28T00:00:10;1.73;;;0.60;;
56269;SDS011;42176;43.240;27.880;2023-07-28T00:02:11;0.40;;;0.40;;
56269;SDS011;42176;43.240;27.880;2023-07-28T00:04:11;2.97;;;0.67;;
56269;SDS011;42176;43.240;27.880;2023-07-28T00:06:12;1.23;;;0.63;;
56269;SDS011;42176;43.240;27.880;2023-07-28T00:08:12;0.63;;;0.50;;
56269;SDS011;42176;43.240;27.880;2023-07-28T00:10:13;1.70;;;0.50;;
56269;SDS011;42176;43.240;27.880;2023-07-28T00:12:13;1.47;;;0.50;;
56269;SDS011;42176;43.240;27.880;2023-07-28T00:14:14;1.03;;;0.43;;
56269;SDS011;42176;43.240;27.880;2023-07-28T00:16:14;0.70;;;0.70;;
56269;SDS011;42176;43.240;27.880;2023-07-28T00:18:15;2.63;;;0.60;;
56269;SDS011;42176;43.240;27.880;2023-07-28T00:20:16;1.27;;;0.50;;
56269;SDS011;42176;43.240;27.880;2023-07-28T00:22:16;2.10;;;0.67;;
56269;SDS011;42176;43.240;27.880;2023-07-28T00:24:17;0.67;;;0.67;;
56269;SDS011;42176;43.240;27.880;2023-07-28T00:26:18;0.60;;;0.60;;
56269;SDS011;42176;43.240;27.880;2023-07-28T00:28:18;0.60;;;0.50;;
56269;SDS011;42176;43.240;27.880;2023-07-28T00:30:19;0.63;;;0.53;;
56269;SDS011;42176;43.240;27.880;2023-07-28T00:32:19;2.10;;;0.77;;
56269;SDS011;42176;43.240;27.880;2023-07-28T00:34:20;1.37;;;0.80;;
56269;SDS011;42176;43.240;27.880;2023-07-28T00:36:20;0.63;;;0.63;;
56269;SDS011;42176;43.240;27.880;2023-07-28T00:38:21;1.10;;;0.77;;
56269;SDS011;42176;43.240;27.880;2023-07-28T00:40:21;2.70;;;0.67;;
56269;SDS011;42176;43.240;27.880;2023-07-28T00:42:22;0.57;;;0.52;;
56269;SDS011;42176;43.240;27.880;2023-07-28T00:44:23;0.93;;;0.70;;
56269;SDS011;42176;43.240;27.880;2023-07-28T00:46:23;2.07;;;1.00;;
56269;SDS011;42176;43.240;27.880;2023-07-28T00:48:24;2.23;;;1.40;;
56269;SDS011;42176;43.240;27.880;2023-07-28T00:50:26;0.50;;;0.50;;
56269;SDS011;42176;43.240;27.880;2023-07-28T00:54:27;0.60;;;0.60;;
56269;SDS011;42176;43.240;27.880;2023-07-28T00:56:28;0.60;;;0.60;;
56269;SDS011;42176;43.240;27.880;2023-07-28T00:58:29;3.90;;;0.60;;
56269;SDS011;42176;43.240;27.880;2023-07-28T01:02:30;0.85;;;0.70;;
56269;SDS011;42176;43.240;27.880;2023-07-28T01:04:31;0.80;;;0.80;;
56269;SDS011;42176;43.240;27.880;2023-07-28T01:10:57;1.17;;;0.68;;
56269;SDS011;42176;43.240;27.880;2023-07-28T01:12:57;3.53;;;0.97;;
56269;SDS011;42176;43.240;27.880;2023-07-28T01:14:58;0.73;;;0.73;;
56269;SDS011;42176;43.240;27.880;2023-07-28T01:16:59;1.67;;;0.70;;
56269;SDS011;42176;43.240;27.880;2023-07-28T01:18:59;1.10;;;0.90;;
56269;SDS011;42176;43.240;27.880;2023-07-28T01:21:01;3.33;;;0.87;;
56269;SDS011;42176;43.240;27.880;2023-07-28T01:23:09;2.03;;;1.10;;
56269;SDS011;42176;43.240;27.880;2023-07-28T01:27:30;1.67;;;0.90;;
56269;SDS011;42176;43.240;27.880;2023-07-28T01:29:31;2.17;;;1.35;;
56269;SDS011;42176;43.240;27.880;2023-07-28T01:31:33;3.50;;;1.00;;
56269;SDS011;42176;43.240;27.880;2023-07-28T01:33:33;3.70;;;1.00;;
56269;SDS011;42176;43.240;27.880;2023-07-28T01:35:37;1.05;;;0.77;;
56269;SDS011;42176;43.240;27.880;2023-07-28T01:37:40;2.30;;;1.10;;
56269;SDS011;42176;43.240;27.880;2023-07-28T01:39:41;1.70;;;1.10;;
56269;SDS011;42176;43.240;27.880;2023-07-28T01:41:41;3.53;;;1.00;;
56269;SDS011;42176;43.240;27.880;2023-07-28T01:43:44;1.63;;;0.98;;
56269;SDS011;42176;43.240;27.880;2023-07-28T01:45:44;5.90;;;1.20;;
56269;SDS011;42176;43.240;27.880;2023-07-28T01:47:45;1.30;;;1.20;;
56269;SDS011;42176;43.240;27.880;2023-07-28T01:49:45;2.97;;;1.20;;
56269;SDS011;42176;43.240;27.880;2023-07-28T01:51:46;1.27;;;0.97;;
56269;SDS011;42176;43.240;27.880;2023-07-28T01:53:46;1.57;;;1.13;;
56269;SDS011;42176;43.240;27.880;2023-07-28T01:55:46;1.90;;;1.50;;
56269;SDS011;42176;43.240;27.880;2023-07-28T01:57:56;0.97;;;0.87;;
56269;SDS011;42176;43.240;27.880;2023-07-28T01:59:59;1.73;;;1.17;;
56269;SDS011;42176;43.240;27.880;2023-07-28T02:02:00;9.27;;;1.67;;
56269;SDS011;42176;43.240;27.880;2023-07-28T02:04:01;5.95;;;1.40;;
56269;SDS011;42176;43.240;27.880;2023-07-28T02:06:02;4.70;;;1.37;;
56269;SDS011;42176;43.240;27.880;2023-07-28T02:08:02;2.47;;;1.10;;
56269;SDS011;42176;43.240;27.880;2023-07-28T02:10:03;2.97;;;0.97;;
56269;SDS011;42176;43.240;27.880;2023-07-28T02:12:04;2.67;;;1.15;;
56269;SDS011;42176;43.240;27.880;2023-07-28T02:14:05;1.33;;;1.23;;
56269;SDS011;42176;43.240;27.880;2023-07-28T02:16:05;4.20;;;1.33;;
56269;SDS011;42176;43.240;27.880;2023-07-28T02:18:06;1.17;;;1.07;;
56269;SDS011;42176;43.240;27.880;2023-07-28T02:20:06;2.27;;;1.17;;
56269;SDS011;42176;43.240;27.880;2023-07-28T02:22:10;3.60;;;1.13;;
56269;SDS011;42176;43.240;27.880;2023-07-28T02:24:11;3.73;;;1.20;;
56269;SDS011;42176;43.240;27.880;2023-07-28T02:26:11;4.90;;;1.50;;
56269;SDS011;42176;43.240;27.880;2023-07-28T02:28:12;2.87;;;1.80;;
56269;SDS011;42176;43.240;27.880;2023-07-28T02:30:12;1.63;;;0.73;;
56269;SDS011;42176;43.240;27.880;2023-07-28T02:32:13;3.03;;;1.40;;
56269;SDS011;42176;43.240;27.880;2023-07-28T02:34:13;3.40;;;2.93;;
56269;SDS011;42176;43.240;27.880;2023-07-28T02:36:14;4.53;;;1.50;;
56269;SDS011;42176;43.240;27.880;2023-07-28T02:38:14;5.47;;;2.23;;
56269;SDS011;42176;43.240;27.880;2023-07-28T02:40:15;1.48;;;1.30;;
56269;SDS011;42176;43.240;27.880;2023-07-28T02:42:16;2.30;;;1.50;;
56269;SDS011;42176;43.240;27.880;2023-07-28T02:44:16;2.10;;;0.93;;
56269;SDS011;42176;43.240;27.880;2023-07-28T02:46:17;3.10;;;0.77;;
56269;SDS011;42176;43.240;27.880;2023-07-28T02:48:17;2.17;;;0.70;;
56269;SDS011;42176;43.240;27.880;2023-07-28T02:50:18;1.57;;;0.70;;
56269;SDS011;42176;43.240;27.880;2023-07-28T02:52:18;1.60;;;1.03;;
56269;SDS011;42176;43.240;27.880;2023-07-28T02:54:18;1.30;;;1.07;;
56269;SDS011;42176;43.240;27.880;2023-07-28T02:56:19;1.37;;;0.80;;
56269;SDS011;42176;43.240;27.880;2023-07-28T02:58:20;2.15;;;1.30;;
56269;SDS011;42176;43.240;27.880;2023-07-28T03:00:21;3.50;;;0.80;;
56269;SDS011;42176;43.240;27.880;2023-07-28T03:02:21;3.57;;;1.00;;
56269;SDS011;42176;43.240;27.880;2023-07-28T03:04:21;2.47;;;0.83;;
56269;SDS011;42176;43.240;27.880;2023-07-28T03:06:22;3.40;;;1.10;;
56269;SDS011;42176;43.240;27.880;2023-07-28T03:08:22;18.17;;;9.63;;
56269;SDS011;42176;43.240;27.880;2023-07-28T03:10:23;3.73;;;1.37;;
56269;SDS011;42176;43.240;27.880;2023-07-28T03:12:23;14.27;;;1.60;;
56269;SDS011;42176;43.240;27.880;2023-07-28T03:14:24;5.07;;;1.77;;
56269;SDS011;42176;43.240;27.880;2023-07-28T03:16:24;1.67;;;1.53;;
56269;SDS011;42176;43.240;27.880;2023-07-28T03:18:24;2.73;;;1.77;;
56269;SDS011;42176;43.240;27.880;2023-07-28T03:20:25;2.63;;;1.10;;
56269;SDS011;42176;43.240;27.880;2023-07-28T03:22:25;8.83;;;2.00;;
56269;SDS011;42176;43.240;27.880;2023-07-28T03:24:26;3.67;;;1.50;;
56269;SDS011;42176;43.240;27.880;2023-07-28T03:26:26;2.63;;;1.53;;
56269;SDS011;42176;43.240;27.880;2023-07-28T03:28:27;3.87;;;1.23;;
56269;SDS011;42176;43.240;27.880;2023-07-28T03:30:27;4.70;;;1.73;;
56269;SDS011;42176;43.240;27.880;2023-07-28T03:32:28;2.03;;;1.50;;
56269;SDS011;42176;43.240;27.880;2023-07-28T03:34:28;2.57;;;1.37;;
56269;SDS011;42176;43.240;27.880;2023-07-28T03:36:28;2.90;;;1.73;;
56269;SDS011;42176;43.240;27.880;2023-07-28T03:38:29;3.47;;;1.60;;
56269;SDS011;42176;43.240;27.880;2023-07-28T03:40:29;1.70;;;1.50;;
56269;SDS011;42176;43.240;27.880;2023-07-28T03:42:31;1.90;;;1.43;;
56269;SDS011;42176;43.240;27.880;2023-07-28T03:44:32;4.88;;;1.90;;
56269;SDS011;42176;43.240;27.880;2023-07-28T03:46:33;10.80;;;2.40;;
56269;SDS011;42176;43.240;27.880;2023-07-28T03:48:34;21.43;;;4.33;;
56269;SDS011;42176;43.240;27.880;2023-07-28T03:50:34;8.47;;;2.90;;
56269;SDS011;42176;43.240;27.880;2023-07-28T03:52:34;13.40;;;2.07;;
56269;SDS011;42176;43.240;27.880;2023-07-28T03:54:35;9.17;;;3.30;;
56269;SDS011;42176;43.240;27.880;2023-07-28T03:56:35;9.83;;;3.37;;
56269;SDS011;42176;43.240;27.880;2023-07-28T03:58:36;27.87;;;3.73;;
56269;SDS011;42176;43.240;27.880;2023-07-28T04:00:36;6.20;;;2.40;;
56269;SDS011;42176;43.240;27.880;2023-07-28T04:02:37;7.10;;;2.23;;
56269;SDS011;42176;43.240;27.880;2023-07-28T04:04:37;7.70;;;2.83;;
56269;SDS011;42176;43.240;27.880;2023-07-28T04:06:41;7.43;;;1.80;;
56269;SDS011;42176;43.240;27.880;2023-07-28T04:08:43;6.82;;;2.00;;
56269;SDS011;42176;43.240;27.880;2023-07-28T04:10:45;8.40;;;1.92;;
56269;SDS011;42176;43.240;27.880;2023-07-28T04:12:45;13.97;;;2.83;;
56269;SDS011;42176;43.240;27.880;2023-07-28T04:14:45;16.90;;;3.93;;
56269;SDS011;42176;43.240;27.880;2023-07-28T04:16:46;16.23;;;3.67;;
56269;SDS011;42176;43.240;27.880;2023-07-28T04:18:46;24.10;;;4.70;;
56269;SDS011;42176;43.240;27.880;2023-07-28T04:20:47;13.20;;;3.83;;
56269;SDS011;42176;43.240;27.880;2023-07-28T04:22:47;14.50;;;2.90;;
56269;SDS011;42176;43.240;27.880;2023-07-28T04:24:48;16.50;;;2.97;;
56269;SDS011;42176;43.240;27.880;2023-07-28T04:26:48;9.73;;;2.27;;
56269;SDS011;42176;43.240;27.880;2023-07-28T04:28:49;5.85;;;2.83;;
56269;SDS011;42176;43.240;27.880;2023-07-28T04:30:49;9.93;;;2.28;;
56269;SDS011;42176;43.240;27.880;2023-07-28T04:32:50;5.20;;;2.30;;
56269;SDS011;42176;43.240;27.880;2023-07-28T04:34:50;8.63;;;3.10;;
56269;SDS011;42176;43.240;27.880;2023-07-28T04:36:51;3.83;;;2.30;;
56269;SDS011;42176;43.240;27.880;2023-07-28T04:38:52;9.20;;;2.83;;
56269;SDS011;42176;43.240;27.880;2023-07-28T04:40:53;6.97;;;3.05;;
56269;SDS011;42176;43.240;27.880;2023-07-28T04:42:53;3.22;;;1.98;;
56269;SDS011;42176;43.240;27.880;2023-07-28T04:44:54;4.23;;;1.80;;
56269;SDS011;42176;43.240;27.880;2023-07-28T04:46:54;3.15;;;2.00;;
56269;SDS011;42176;43.240;27.880;2023-07-28T04:48:56;5.70;;;3.03;;
56269;SDS011;42176;43.240;27.880;2023-07-28T04:50:57;7.28;;;3.20;;
56269;SDS011;42176;43.240;27.880;2023-07-28T04:52:57;4.65;;;2.60;;
56269;SDS011;42176;43.240;27.880;2023-07-28T04:54:58;14.85;;;6.07;;
56269;SDS011;42176;43.240;27.880;2023-07-28T04:56:58;4.47;;;3.15;;
56269;SDS011;42176;43.240;27.880;2023-07-28T04:58:58;3.60;;;2.83;;
56269;SDS011;42176;43.240;27.880;2023-07-28T05:00:59;3.97;;;2.45;;
56269;SDS011;42176;43.240;27.880;2023-07-28T05:02:59;9.32;;;2.67;;
56269;SDS011;42176;43.240;27.880;2023-07-28T05:07:00;4.30;;;2.40;;
56269;SDS011;42176;43.240;27.880;2023-07-28T05:09:01;5.28;;;2.00;;
56269;SDS011;42176;43.240;27.880;2023-07-28T05:13:02;5.93;;;1.70;;
56269;SDS011;42176;43.240;27.880;2023-07-28T05:15:04;6.18;;;1.95;;
56269;SDS011;42176;43.240;27.880;2023-07-28T05:17:05;3.60;;;2.00;;
56269;SDS011;42176;43.240;27.880;2023-07-28T05:19:06;2.85;;;1.85;;
56269;SDS011;42176;43.240;27.880;2023-07-28T05:21:07;9.07;;;2.13;;
56269;SDS011;42176;43.240;27.880;2023-07-28T05:23:08;4.97;;;1.70;;
56269;SDS011;42176;43.240;27.880;2023-07-28T05:27:09;6.80;;;2.03;;
56269;SDS011;42176;43.240;27.880;2023-07-28T05:29:10;2.35;;;1.60;;
56269;SDS011;42176;43.240;27.880;2023-07-28T05:31:10;2.42;;;1.80;;
56269;SDS011;42176;43.240;27.880;2023-07-28T05:35:11;6.40;;;1.47;;
56269;SDS011;42176;43.240;27.880;2023-07-28T05:37:11;5.82;;;1.90;;
56269;SDS011;42176;43.240;27.880;2023-07-28T05:39:12;9.55;;;2.03;;
56269;SDS011;42176;43.240;27.880;2023-07-28T05:41:12;1.67;;;1.58;;
56269;SDS011;42176;43.240;27.880;2023-07-28T05:43:13;3.45;;;1.60;;
56269;SDS011;42176;43.240;27.880;2023-07-28T05:45:13;5.25;;;1.80;;
56269;SDS011;42176;43.240;27.880;2023-07-28T05:47:14;5.25;;;1.65;;
56269;SDS011;42176;43.240;27.880;2023-07-28T05:49:14;2.20;;;1.65;;
56269;SDS011;42176;43.240;27.880;2023-07-28T05:51:15;1.85;;;1.75;;
56269;SDS011;42176;43.240;27.880;2023-07-28T05:53:15;3.22;;;1.50;;
56269;SDS011;42176;43.240;27.880;2023-07-28T05:55:22;5.20;;;1.90;;
56269;SDS011;42176;43.240;27.880;2023-07-28T05:57:22;5.53;;;1.70;;
56269;SDS011;42176;43.240;27.880;2023-07-28T05:59:23;2.03;;;1.42;;
56269;SDS011;42176;43.240;27.880;2023-07-28T06:01:23;1.50;;;1.40;;
56269;SDS011;42176;43.240;27.880;2023-07-28T06:03:26;1.50;;;1.40;;
56269;SDS011;42176;43.240;27.880;2023-07-28T06:05:29;4.95;;;1.80;;
56269;SDS011;42176;43.240;27.880;2023-07-28T06:07:29;8.38;;;1.90;;
56269;SDS011;42176;43.240;27.880;2023-07-28T06:09:29;9.32;;;1.88;;
56269;SDS011;42176;43.240;27.880;2023-07-28T06:11:30;3.42;;;1.40;;
56269;SDS011;42176;43.240;27.880;2023-07-28T06:13:30;2.83;;;1.50;;
56269;SDS011;42176;43.240;27.880;2023-07-28T06:15:31;4.97;;;1.67;;
56269;SDS011;42176;43.240;27.880;2023-07-28T06:17:34;2.25;;;1.70;;
56269;SDS011;42176;43.240;27.880;2023-07-28T06:19:35;2.67;;;1.67;;
56269;SDS011;42176;43.240;27.880;2023-07-28T06:21:35;5.70;;;1.50;;
56269;SDS011;42176;43.240;27.880;2023-07-28T06:23:36;1.95;;;1.30;;
56269;SDS011;42176;43.240;27.880;2023-07-28T06:25:36;1.45;;;1.35;;
56269;SDS011;42176;43.240;27.880;2023-07-28T06:27:42;3.58;;;1.48;;
56269;SDS011;42176;43.240;27.880;2023-07-28T06:29:43;4.20;;;1.50;;
56269;SDS011;42176;43.240;27.880;2023-07-28T06:31:43;3.55;;;1.40;;
56269;SDS011;42176;43.240;27.880;2023-07-28T06:33:44;2.00;;;1.30;;
56269;SDS011;42176;43.240;27.880;2023-07-28T06:35:44;2.70;;;1.30;;
56269;SDS011;42176;43.240;27.880;2023-07-28T06:37:44;2.15;;;1.30;;
56269;SDS011;42176;43.240;27.880;2023-07-28T06:39:45;2.90;;;1.30;;
56269;SDS011;42176;43.240;27.880;2023-07-28T06:41:45;4.18;;;1.52;;
56269;SDS011;42176;43.240;27.880;2023-07-28T06:43:46;7.32;;;1.70;;
56269;SDS011;42176;43.240;27.880;2023-07-28T06:45:51;1.77;;;1.30;;
56269;SDS011;42176;43.240;27.880;2023-07-28T06:47:53;4.72;;;1.80;;
56269;SDS011;42176;43.240;27.880;2023-07-28T06:49:53;2.63;;;1.60;;
56269;SDS011;42176;43.240;27.880;2023-07-28T06:51:54;4.00;;;3.33;;
56269;SDS011;42176;43.240;27.880;2023-07-28T06:53:54;4.50;;;3.33;;
56269;SDS011;42176;43.240;27.880;2023-07-28T06:55:54;6.65;;;3.40;;
56269;SDS011;42176;43.240;27.880;2023-07-28T06:57:55;3.70;;;1.90;;
56269;SDS011;42176;43.240;27.880;2023-07-28T06:59:55;5.88;;;3.00;;
56269;SDS011;42176;43.240;27.880;2023-07-28T07:01:56;9.40;;;3.70;;
56269;SDS011;42176;43.240;27.880;2023-07-28T07:03:56;7.45;;;3.38;;
56269;SDS011;42176;43.240;27.880;2023-07-28T07:05:57;4.32;;;3.03;;
56269;SDS011;42176;43.240;27.880;2023-07-28T07:07:57;3.78;;;2.97;;
56269;SDS011;42176;43.240;27.880;2023-07-28T07:09:58;4.13;;;2.90;;
56269;SDS011;42176;43.240;27.880;2023-07-28T07:11:59;3.85;;;2.83;;
56269;SDS011;42176;43.240;27.880;2023-07-28T07:13:59;3.95;;;2.63;;
56269;SDS011;42176;43.240;27.880;2023-07-28T07:16:00;6.20;;;3.78;;
56269;SDS011;42176;43.240;27.880;2023-07-28T07:18:00;8.27;;;3.38;;
56269;SDS011;42176;43.240;27.880;2023-07-28T07:20:01;12.75;;;3.80;;
56269;SDS011;42176;43.240;27.880;2023-07-28T07:22:02;6.07;;;3.90;;
56269;SDS011;42176;43.240;27.880;2023-07-28T07:24:03;10.02;;;4.45;;
56269;SDS011;42176;43.240;27.880;2023-07-28T07:26:04;7.55;;;3.40;;
56269;SDS011;42176;43.240;27.880;2023-07-28T07:28:04;16.20;;;3.72;;
56269;SDS011;42176;43.240;27.880;2023-07-28T07:30:05;7.47;;;3.90;;
56269;SDS011;42176;43.240;27.880;2023-07-28T07:32:06;3.80;;;3.40;;
56269;SDS011;42176;43.240;27.880;2023-07-28T07:34:07;9.30;;;3.88;;
56269;SDS011;42176;43.240;27.880;2023-07-28T07:36:12;8.02;;;3.05;;
56269;SDS011;42176;43.240;27.880;2023-07-28T07:38:13;7.80;;;3.75;;
56269;SDS011;42176;43.240;27.880;2023-07-28T07:40:14;4.63;;;3.13;;
56269;SDS011;42176;43.240;27.880;2023-07-28T07:42:14;5.80;;;3.53;;
56269;SDS011;42176;43.240;27.880;2023-07-28T07:44:15;7.65;;;2.95;;
56269;SDS011;42176;43.240;27.880;2023-07-28T07:46:15;3.42;;;2.20;;
56269;SDS011;42176;43.240;27.880;2023-07-28T07:48:16;5.65;;;4.35;;
56269;SDS011;42176;43.240;27.880;2023-07-28T07:50:17;3.58;;;2.45;;
56269;SDS011;42176;43.240;27.880;2023-07-28T07:52:17;4.45;;;2.08;;
56269;SDS011;42176;43.240;27.880;2023-07-28T07:54:18;3.50;;;1.92;;
56269;SDS011;42176;43.240;27.880;2023-07-28T07:56:18;4.40;;;2.35;;
56269;SDS011;42176;43.240;27.880;2023-07-28T07:58:19;2.10;;;1.90;;
56269;SDS011;42176;43.240;27.880;2023-07-28T08:00:19;2.42;;;2.08;;
56269;SDS011;42176;43.240;27.880;2023-07-28T08:02:20;2.75;;;2.28;;
56269;SDS011;42176;43.240;27.880;2023-07-28T08:04:20;2.50;;;1.92;;
56269;SDS011;42176;43.240;27.880;2023-07-28T08:06:21;2.92;;;1.70;;
56269;SDS011;42176;43.240;27.880;2023-07-28T08:08:21;4.65;;;1.90;;
56269;SDS011;42176;43.240;27.880;2023-07-28T08:10:22;5.22;;;1.63;;
56269;SDS011;42176;43.240;27.880;2023-07-28T08:12:22;1.85;;;1.45;;
56269;SDS011;42176;43.240;27.880;2023-07-28T08:14:23;3.30;;;1.40;;
56269;SDS011;42176;43.240;27.880;2023-07-28T08:16:23;3.20;;;1.60;;
56269;SDS011;42176;43.240;27.880;2023-07-28T08:18:23;2.00;;;1.60;;
56269;SDS011;42176;43.240;27.880;2023-07-28T08:20:24;1.45;;;1.30;;
56269;SDS011;42176;43.240;27.880;2023-07-28T08:22:25;1.73;;;1.38;;
56269;SDS011;42176;43.240;27.880;2023-07-28T08:24:25;1.52;;;1.42;;
56269;SDS011;42176;43.240;27.880;2023-07-28T08:26:26;1.90;;;1.40;;
56269;SDS011;42176;43.240;27.880;2023-07-28T08:28:26;2.10;;;1.90;;
56269;SDS011;42176;43.240;27.880;2023-07-28T08:30:27;1.40;;;1.30;;
56269;SDS011;42176;43.240;27.880;2023-07-28T08:32:27;2.08;;;1.75;;
56269;SDS011;42176;43.240;27.880;2023-07-28T08:34:28;2.17;;;1.50;;
56269;SDS011;42176;43.240;27.880;2023-07-28T08:36:28;2.53;;;1.27;;
56269;SDS011;42176;43.240;27.880;2023-07-28T08:38:29;2.72;;;1.58;;
56269;SDS011;42176;43.240;27.880;2023-07-28T08:40:29;1.98;;;1.70;;
56269;SDS011;42176;43.240;27.880;2023-07-28T08:42:30;2.42;;;1.75;;
56269;SDS011;42176;43.240;27.880;2023-07-28T08:44:32;2.28;;;1.48;;
56269;SDS011;42176;43.240;27.880;2023-07-28T08:46:33;1.50;;;1.40;;
56269;SDS011;42176;43.240;27.880;2023-07-28T08:48:35;2.35;;;1.70;;
56269;SDS011;42176;43.240;27.880;2023-07-28T08:50:36;3.80;;;2.35;;
56269;SDS011;42176;43.240;27.880;2023-07-28T08:52:36;2.30;;;1.40;;
56269;SDS011;42176;43.240;27.880;2023-07-28T08:54:37;3.33;;;1.70;;
56269;SDS011;42176;43.240;27.880;2023-07-28T08:56:37;1.98;;;1.70;;
56269;SDS011;42176;43.240;27.880;2023-07-28T08:58:38;1.73;;;1.60;;
56269;SDS011;42176;43.240;27.880;2023-07-28T09:00:40;2.17;;;1.75;;
56269;SDS011;42176;43.240;27.880;2023-07-28T09:02:41;2.42;;;1.70;;
56269;SDS011;42176;43.240;27.880;2023-07-28T09:04:42;1.80;;;1.67;;
56269;SDS011;42176;43.240;27.880;2023-07-28T09:06:45;2.40;;;1.55;;
56269;SDS011;42176;43.240;27.880;2023-07-28T09:08:46;1.67;;;1.48;;
56269;SDS011;42176;43.240;27.880;2023-07-28T09:10:47;4.53;;;1.88;;
56269;SDS011;42176;43.240;27.880;2023-07-28T09:12:49;1.55;;;1.45;;
56269;SDS011;42176;43.240;27.880;2023-07-28T09:14:55;1.55;;;1.45;;
56269;SDS011;42176;43.240;27.880;2023-07-28T09:17:05;4.38;;;1.40;;
56269;SDS011;42176;43.240;27.880;2023-07-28T09:19:10;2.22;;;1.20;;
56269;SDS011;42176;43.240;27.880;2023-07-28T09:21:17;2.15;;;1.08;;
56269;SDS011;42176;43.240;27.880;2023-07-28T09:23:27;1.40;;;1.30;;
56269;SDS011;42176;43.240;27.880;2023-07-28T09:25:29;3.38;;;1.38;;
56269;SDS011;42176;43.240;27.880;2023-07-28T09:27:33;2.65;;;1.33;;
56269;SDS011;42176;43.240;27.880;2023-07-28T09:29:33;2.20;;;1.20;;
56269;SDS011;42176;43.240;27.880;2023-07-28T09:31:35;1.40;;;1.27;;
56269;SDS011;42176;43.240;27.880;2023-07-28T09:33:36;7.63;;;1.33;;
56269;SDS011;42176;43.240;27.880;2023-07-28T09:35:46;4.72;;;1.45;;
56269;SDS011;42176;43.240;27.880;2023-07-28T09:37:49;2.90;;;1.27;;
56269;SDS011;42176;43.240;27.880;2023-07-28T09:39:52;1.20;;;1.13;;
56269;SDS011;42176;43.240;27.880;2023-07-28T09:41:53;4.13;;;1.25;;
56269;SDS011;42176;43.240;27.880;2023-07-28T09:43:59;1.50;;;1.40;;
56269;SDS011;42176;43.240;27.880;2023-07-28T09:46:03;4.82;;;1.23;;
56269;SDS011;42176;43.240;27.880;2023-07-28T09:48:06;5.65;;;1.38;;
56269;SDS011;42176;43.240;27.880;2023-07-28T09:50:08;1.17;;;0.90;;
56269;SDS011;42176;43.240;27.880;2023-07-28T09:52:10;1.10;;;1.00;;
56269;SDS011;42176;43.240;27.880;2023-07-28T09:54:12;1.77;;;1.30;;
56269;SDS011;42176;43.240;27.880;2023-07-28T09:56:30;1.92;;;1.20;;
56269;SDS011;42176;43.240;27.880;2023-07-28T09:58:31;3.28;;;1.20;;
56269;SDS011;42176;43.240;27.880;2023-07-28T10:00:37;1.23;;;1.05;;
56269;SDS011;42176;43.240;27.880;2023-07-28T10:02:38;1.20;;;1.10;;
56269;SDS011;42176;43.240;27.880;2023-07-28T10:04:40;5.35;;;1.00;;
56269;SDS011;42176;43.240;27.880;2023-07-28T10:06:40;1.55;;;1.40;;
56269;SDS011;42176;43.240;27.880;2023-07-28T10:08:41;1.50;;;1.23;;
56269;SDS011;42176;43.240;27.880;2023-07-28T10:10:43;1.27;;;1.17;;
56269;SDS011;42176;43.240;27.880;2023-07-28T10:12:50;1.38;;;1.00;;
56269;SDS011;42176;43.240;27.880;2023-07-28T10:15:01;1.38;;;1.10;;
56269;SDS011;42176;43.240;27.880;2023-07-28T10:17:04;1.60;;;1.50;;
56269;SDS011;42176;43.240;27.880;2023-07-28T10:19:06;1.40;;;1.30;;
56269;SDS011;42176;43.240;27.880;2023-07-28T10:21:10;3.00;;;1.90;;
56269;SDS011;42176;43.240;27.880;2023-07-28T10:23:16;1.65;;;1.20;;
56269;SDS011;42176;43.240;27.880;2023-07-28T10:25:23;1.75;;;1.15;;
56269;SDS011;42176;43.240;27.880;2023-07-28T10:27:36;1.10;;;0.77;;
56269;SDS011;42176;43.240;27.880;2023-07-28T10:29:39;5.68;;;1.00;;
56269;SDS011;42176;43.240;27.880;2023-07-28T10:31:50;1.17;;;1.00;;
56269;SDS011;42176;43.240;27.880;2023-07-28T10:33:52;1.17;;;0.95;;
56269;SDS011;42176;43.240;27.880;2023-07-28T10:35:52;1.77;;;1.25;;
56269;SDS011;42176;43.240;27.880;2023-07-28T10:37:54;3.17;;;1.33;;
56269;SDS011;42176;43.240;27.880;2023-07-28T10:42:24;5.35;;;1.20;;
56269;SDS011;42176;43.240;27.880;2023-07-28T10:44:26;4.30;;;1.02;;
56269;SDS011;42176;43.240;27.880;2023-07-28T10:46:27;1.85;;;1.15;;
56269;SDS011;42176;43.240;27.880;2023-07-28T10:50:28;1.37;;;1.20;;
56269;SDS011;42176;43.240;27.880;2023-07-28T10:52:30;4.80;;;1.30;;
56269;SDS011;42176;43.240;27.880;2023-07-28T10:56:31;3.27;;;1.07;;
56269;SDS011;42176;43.240;27.880;2023-07-28T11:02:36;1.40;;;1.30;;
56269;SDS011;42176;43.240;27.880;2023-07-28T11:04:38;4.55;;;1.60;;
56269;SDS011;42176;43.240;27.880;2023-07-28T11:06:46;7.53;;;1.30;;
56269;SDS011;42176;43.240;27.880;2023-07-28T11:08:48;3.25;;;1.40;;
56269;SDS011;42176;43.240;27.880;2023-07-28T11:10:49;2.45;;;1.58;;
56269;SDS011;42176;43.240;27.880;2023-07-28T11:12:50;2.35;;;1.25;;
56269;SDS011;42176;43.240;27.880;2023-07-28T11:14:52;1.45;;;1.17;;
56269;SDS011;42176;43.240;27.880;2023-07-28T11:16:52;6.03;;;1.50;;
56269;SDS011;42176;43.240;27.880;2023-07-28T11:18:55;5.53;;;1.33;;
56269;SDS011;42176;43.240;27.880;2023-07-28T11:20:57;1.77;;;1.30;;
56269;SDS011;42176;43.240;27.880;2023-07-28T11:22:58;3.13;;;1.67;;
56269;SDS011;42176;43.240;27.880;2023-07-28T11:25:00;2.50;;;1.35;;
56269;SDS011;42176;43.240;27.880;2023-07-28T11:27:01;3.07;;;1.23;;
56269;SDS011;42176;43.240;27.880;2023-07-28T11:31:03;2.22;;;1.30;;
56269;SDS011;42176;43.240;27.880;2023-07-28T11:33:03;0.85;;;0.85;;
56269;SDS011;42176;43.240;27.880;2023-07-28T11:37:05;7.78;;;1.10;;
56269;SDS011;42176;43.240;27.880;2023-07-28T11:39:08;1.50;;;1.30;;
56269;SDS011;42176;43.240;27.880;2023-07-28T11:41:10;2.05;;;1.40;;
56269;SDS011;42176;43.240;27.880;2023-07-28T11:43:11;2.35;;;1.25;;
56269;SDS011;42176;43.240;27.880;2023-07-28T11:45:12;1.30;;;1.20;;
56269;SDS011;42176;43.240;27.880;2023-07-28T11:47:17;4.30;;;1.00;;
56269;SDS011;42176;43.240;27.880;2023-07-28T11:49:21;6.18;;;1.35;;
56269;SDS011;42176;43.240;27.880;2023-07-28T11:51:24;4.43;;;1.45;;
56269;SDS011;42176;43.240;27.880;2023-07-28T11:53:25;2.77;;;1.17;;
56269;SDS011;42176;43.240;27.880;2023-07-28T11:55:25;1.85;;;1.27;;
56269;SDS011;42176;43.240;27.880;2023-07-28T11:57:26;1.30;;;1.00;;
56269;SDS011;42176;43.240;27.880;2023-07-28T11:59:30;1.20;;;1.10;;
56269;SDS011;42176;43.240;27.880;2023-07-28T12:01:31;1.77;;;1.40;;
56269;SDS011;42176;43.240;27.880;2023-07-28T12:03:31;1.37;;;1.23;;
56269;SDS011;42176;43.240;27.880;2023-07-28T12:05:32;4.93;;;1.45;;
56269;SDS011;42176;43.240;27.880;2023-07-28T12:07:35;4.10;;;1.23;;
56269;SDS011;42176;43.240;27.880;2023-07-28T12:11:49;1.25;;;1.13;;
56269;SDS011;42176;43.240;27.880;2023-07-28T12:13:49;3.90;;;1.40;;
56269;SDS011;42176;43.240;27.880;2023-07-28T12:15:50;3.85;;;1.17;;
56269;SDS011;42176;43.240;27.880;2023-07-28T12:22:08;1.33;;;1.23;;
56269;SDS011;42176;43.240;27.880;2023-07-28T12:24:09;4.07;;;1.70;;
56269;SDS011;42176;43.240;27.880;2023-07-28T12:26:09;5.83;;;1.43;;
56269;SDS011;42176;43.240;27.880;2023-07-28T12:28:10;1.83;;;1.00;;
56269;SDS011;42176;43.240;27.880;2023-07-28T12:30:12;2.28;;;0.98;;
56269;SDS011;42176;43.240;27.880;2023-07-28T12:32:12;2.27;;;1.00;;
56269;SDS011;42176;43.240;27.880;2023-07-28T12:34:12;3.53;;;1.20;;
56269;SDS011;42176;43.240;27.880;2023-07-28T12:36:13;7.53;;;1.20;;
56269;SDS011;42176;43.240;27.880;2023-07-28T12:38:13;3.23;;;0.80;;